Varna, Bulgaria
Current Conditions -  °F | °C
As of 12:00 PM on Monday 22 Dec 2014 (Local Time) from LBWN Reporting Station
Clear Clear  
Wind Chill: 33°   Ceiling: Unl
Heat Index: 41°   Visibility: 6mi
Dew Point: 32°   Wind: 15mph
Humidity: 70%   Direction: 270°W
Pressure: 30.33"   Gusts: NA
Location:  43.21°N, 27.9°E
Report Text: LBWN 220900Z 27013KT CAVOK 05/M00 Q1027 NOSIG
Loading
Personal Weather Stations






























Interactive Weather Map New forecast layout! Learn more

10-Day Weather Forecast

Advertisements
Track Severe Weather on mobile